createdAt,value
2022-09-25T00:00:57.335Z,65.90
2022-09-25T00:03:27.166Z,65.90
2022-09-25T00:06:08.526Z,65.70
2022-09-25T00:08:36.838Z,65.70
2022-09-25T00:11:12.387Z,65.60
2022-09-25T00:13:40.459Z,65.50
2022-09-25T00:16:10.605Z,65.60
2022-09-25T00:18:56.032Z,65.50
2022-09-25T00:21:22.834Z,65.60
2022-09-25T00:23:49.763Z,65.70
2022-09-25T00:26:17.217Z,66.10
2022-09-25T00:28:44.055Z,66.70
2022-09-25T00:31:11.208Z,66.80
2022-09-25T00:33:38.054Z,66.50
2022-09-25T00:36:08.179Z,66.40
2022-09-25T00:38:36.735Z,66.80
2022-09-25T00:41:05.782Z,67.20
2022-09-25T00:43:44.825Z,67.90
2022-09-25T00:46:22.423Z,69.00
2022-09-25T00:48:54.987Z,70.00
2022-09-25T00:51:28.962Z,69.90
2022-09-25T00:54:03.359Z,69.80
2022-09-25T00:56:36.498Z,69.60
2022-09-25T00:59:03.355Z,69.10
2022-09-25T01:01:30.400Z,68.70
2022-09-25T01:04:00.328Z,67.90
2022-09-25T01:06:28.015Z,67.70
2022-09-25T01:08:55.671Z,67.50
2022-09-25T01:11:22.357Z,67.30
2022-09-25T01:13:49.219Z,67.20
2022-09-25T01:16:27.211Z,67.20
2022-09-25T01:19:01.418Z,67.30
2022-09-25T01:21:33.062Z,67.00
2022-09-25T01:24:35.873Z,66.80
2022-09-25T01:27:36.518Z,66.80
2022-09-25T01:30:15.508Z,66.30
2022-09-25T01:33:01.042Z,66.40
2022-09-25T01:35:43.143Z,66.30
2022-09-25T01:38:15.126Z,66.10
2022-09-25T01:41:22.446Z,65.90
2022-09-25T01:44:08.086Z,66.00
2022-09-25T01:46:39.588Z,66.00
2022-09-25T01:49:17.070Z,66.80
2022-09-25T01:51:55.743Z,66.00
2022-09-25T01:54:28.929Z,65.90
2022-09-25T01:57:05.961Z,65.90
2022-09-25T01:59:42.290Z,65.90
2022-09-25T02:02:13.747Z,65.80
2022-09-25T02:04:46.274Z,65.70
2022-09-25T02:07:22.249Z,66.00
2022-09-25T02:09:54.468Z,67.10
2022-09-25T02:12:37.183Z,67.80
2022-09-25T02:15:11.816Z,67.50
2022-09-25T02:18:06.959Z,67.00
2022-09-25T02:20:36.502Z,67.00
2022-09-25T02:23:21.067Z,66.60
2022-09-25T02:26:04.951Z,67.30
2022-09-25T02:28:32.301Z,66.80
2022-09-25T02:31:00.924Z,67.80
2022-09-25T02:33:27.791Z,67.10
2022-09-25T02:35:54.446Z,67.10
2022-09-25T02:38:21.575Z,67.20
2022-09-25T02:41:21.285Z,66.90
2022-09-25T02:44:03.418Z,67.50
2022-09-25T02:46:35.669Z,67.50
2022-09-25T02:49:20.353Z,67.40
2022-09-25T02:52:03.997Z,67.10
2022-09-25T02:54:38.633Z,67.40
2022-09-25T02:57:12.743Z,67.90
2022-09-25T02:59:50.490Z,67.50
2022-09-25T03:02:18.316Z,67.70
2022-09-25T03:04:48.654Z,68.00
2022-09-25T03:07:17.445Z,68.10
2022-09-25T03:09:46.922Z,68.10
2022-09-25T03:12:14.647Z,68.10
2022-09-25T03:14:41.443Z,68.10
2022-09-25T03:17:10.203Z,69.20
2022-09-25T03:19:36.859Z,68.60
2022-09-25T03:22:03.888Z,68.80
2022-09-25T03:24:31.314Z,69.40
2022-09-25T03:26:57.957Z,70.90
2022-09-25T03:29:24.614Z,70.00
2022-09-25T03:31:51.428Z,69.50
2022-09-25T03:34:19.099Z,70.30
2022-09-25T03:36:47.616Z,71.40
2022-09-25T03:39:17.800Z,71.00
2022-09-25T03:41:45.872Z,70.30
2022-09-25T03:44:12.716Z,71.40
2022-09-25T03:46:39.754Z,70.00
2022-09-25T03:49:07.008Z,69.80
2022-09-25T03:51:34.189Z,70.80
2022-09-25T03:54:00.962Z,69.60
2022-09-25T03:56:29.769Z,69.40
2022-09-25T03:58:57.230Z,70.50
2022-09-25T04:01:25.693Z,70.80
2022-09-25T04:03:52.523Z,69.90
2022-09-25T04:06:24.082Z,69.60
2022-09-25T04:08:52.972Z,70.60
2022-09-25T04:11:20.852Z,70.80
2022-09-25T04:13:47.687Z,70.10
2022-09-25T04:16:16.671Z,69.50
2022-09-25T04:18:43.714Z,69.80
2022-09-25T04:21:12.371Z,69.20
2022-09-25T04:23:39.682Z,69.50
2022-09-25T04:26:07.369Z,69.40
2022-09-25T04:28:34.278Z,69.30
2022-09-25T04:31:02.987Z,69.10
2022-09-25T04:33:48.382Z,68.90
2022-09-25T04:36:16.731Z,69.00
2022-09-25T04:38:44.030Z,69.00
2022-09-25T04:41:11.188Z,68.60
2022-09-25T04:43:38.217Z,69.10
2022-09-25T04:46:08.219Z,69.30
2022-09-25T04:48:35.672Z,70.30
2022-09-25T04:51:03.082Z,71.60
2022-09-25T04:53:31.286Z,69.90
2022-09-25T04:56:12.176Z,70.30
2022-09-25T04:58:49.282Z,70.20
2022-09-25T05:01:17.820Z,70.80
2022-09-25T05:03:47.575Z,69.60
2022-09-25T05:06:14.262Z,69.70
2022-09-25T05:08:40.887Z,69.20
2022-09-25T05:11:08.181Z,69.10
2022-09-25T05:13:34.806Z,69.40
2022-09-25T05:16:03.825Z,71.30
2022-09-25T05:18:30.548Z,70.00
2022-09-25T05:20:57.953Z,70.40
2022-09-25T05:23:24.660Z,69.60
2022-09-25T05:25:52.933Z,70.60
2022-09-25T05:28:19.558Z,70.20
2022-09-25T05:30:46.228Z,70.00
2022-09-25T05:33:12.878Z,70.10
2022-09-25T05:35:39.523Z,69.90
2022-09-25T05:38:06.730Z,70.30
2022-09-25T05:40:33.495Z,71.20
2022-09-25T05:43:01.981Z,70.80
2022-09-25T05:45:28.614Z,70.60
2022-09-25T05:48:04.231Z,71.70
2022-09-25T05:50:34.485Z,70.20
2022-09-25T05:53:03.837Z,70.00
2022-09-25T05:55:31.229Z,69.80
2022-09-25T05:58:02.758Z,71.10
2022-09-25T06:00:32.924Z,70.90
2022-09-25T06:03:03.169Z,70.10
2022-09-25T06:05:30.351Z,69.70
2022-09-25T06:07:57.033Z,69.70
2022-09-25T06:10:25.996Z,70.40
2022-09-25T06:12:58.516Z,69.60
2022-09-25T06:15:27.904Z,69.40
2022-09-25T06:17:58.438Z,69.20
2022-09-25T06:20:25.218Z,71.10
2022-09-25T06:22:56.286Z,70.60
2022-09-25T06:25:25.858Z,71.30
2022-09-25T06:27:57.267Z,70.40
2022-09-25T06:30:27.523Z,70.10
2022-09-25T06:32:58.004Z,70.80
2022-09-25T06:35:24.668Z,70.90
2022-09-25T06:37:51.637Z,71.60
2022-09-25T06:40:18.811Z,71.60
2022-09-25T06:42:46.140Z,72.90
2022-09-25T06:45:12.858Z,70.80
2022-09-25T06:47:39.539Z,71.30
2022-09-25T06:50:06.680Z,70.60
2022-09-25T06:52:33.311Z,71.70
2022-09-25T06:55:00.472Z,70.80
2022-09-25T06:57:27.122Z,71.80
2022-09-25T06:59:53.727Z,71.40
2022-09-25T07:02:49.811Z,72.20
2022-09-25T07:05:18.804Z,73.30
2022-09-25T07:07:46.429Z,70.80
2022-09-25T07:10:13.160Z,70.80
2022-09-25T07:12:41.402Z,70.80
2022-09-25T07:15:09.042Z,72.80
2022-09-25T07:17:36.318Z,71.80
2022-09-25T07:20:03.605Z,72.30
2022-09-25T07:22:30.263Z,72.20
2022-09-25T07:24:57.234Z,71.20
2022-09-25T07:27:23.883Z,71.20
2022-09-25T07:29:52.396Z,71.40
2022-09-25T07:32:20.552Z,72.20
2022-09-25T07:34:50.088Z,71.90
2022-09-25T07:37:17.995Z,71.50
2022-09-25T07:39:45.172Z,71.40
2022-09-25T07:42:13.217Z,71.20
2022-09-25T07:44:42.436Z,71.10
2022-09-25T07:47:15.094Z,72.00
2022-09-25T07:49:41.799Z,72.90
2022-09-25T07:52:08.470Z,72.30
2022-09-25T07:54:35.913Z,73.30
2022-09-25T07:57:03.803Z,73.80
2022-09-25T07:59:30.506Z,74.00
2022-09-25T08:01:58.215Z,73.70
2022-09-25T08:04:25.028Z,73.70
2022-09-25T08:06:51.762Z,74.70
2022-09-25T08:09:18.403Z,73.10
2022-09-25T08:11:45.113Z,74.70
2022-09-25T08:14:14.290Z,75.20
2022-09-25T08:16:41.350Z,75.90
2022-09-25T08:19:08.140Z,74.80
2022-09-25T08:21:35.281Z,74.70
2022-09-25T08:24:02.844Z,74.20
2022-09-25T08:26:30.201Z,73.40
2022-09-25T08:28:57.271Z,72.70
2022-09-25T08:31:23.975Z,72.60
2022-09-25T08:33:50.859Z,73.80
2022-09-25T08:36:18.434Z,74.60
2022-09-25T08:38:45.549Z,75.10
2022-09-25T08:41:28.839Z,74.10
2022-09-25T08:44:08.933Z,73.20
2022-09-25T08:47:55.932Z,75.20
2022-09-25T08:50:25.269Z,76.30
2022-09-25T08:53:02.944Z,76.00
2022-09-25T08:55:56.116Z,75.70
2022-09-25T08:58:34.727Z,74.40
2022-09-25T09:01:07.422Z,75.30
2022-09-25T09:04:05.619Z,75.00
2022-09-25T09:06:33.673Z,75.10
2022-09-25T09:09:13.256Z,75.40
2022-09-25T09:11:52.794Z,75.50
2022-09-25T09:14:21.449Z,75.50
2022-09-25T09:17:05.721Z,75.40
2022-09-25T09:19:33.368Z,75.70
2022-09-25T09:22:14.884Z,75.30
2022-09-25T09:25:05.482Z,74.30
2022-09-25T09:27:51.418Z,73.60
2022-09-25T09:31:13.561Z,71.20
2022-09-25T09:34:18.311Z,73.90
2022-09-25T09:37:16.042Z,74.00
2022-09-25T09:40:00.515Z,73.40
2022-09-25T09:43:11.383Z,73.50
2022-09-25T09:45:44.273Z,73.10
2022-09-25T09:48:35.651Z,73.50
2022-09-25T09:51:28.168Z,74.00
2022-09-25T09:54:05.023Z,73.90
2022-09-25T09:56:33.097Z,74.10
2022-09-25T09:59:03.788Z,74.20
2022-09-25T10:01:41.238Z,74.00
2022-09-25T10:04:18.011Z,74.10
2022-09-25T10:06:58.213Z,74.00
2022-09-25T10:09:26.295Z,74.30
2022-09-25T10:12:14.705Z,74.60
2022-09-25T10:14:45.169Z,74.30
2022-09-25T10:17:12.256Z,74.00
2022-09-25T10:20:06.062Z,74.20
2022-09-25T10:22:39.642Z,73.90
2022-09-25T10:25:07.116Z,73.70
2022-09-25T10:27:41.285Z,73.60
2022-09-25T10:30:11.003Z,73.60
2022-09-25T10:32:43.556Z,73.30
2022-09-25T10:35:22.214Z,73.30
2022-09-25T10:37:53.349Z,73.40
2022-09-25T10:40:35.064Z,73.60
2022-09-25T10:43:15.193Z,73.60
2022-09-25T10:45:42.453Z,73.60
2022-09-25T10:48:48.409Z,73.60
2022-09-25T10:51:18.278Z,73.90
2022-09-25T10:53:47.093Z,73.10
2022-09-25T10:56:27.066Z,72.70
2022-09-25T10:58:59.665Z,71.90
2022-09-25T11:01:35.386Z,71.70
2022-09-25T11:04:09.159Z,71.10
2022-09-25T11:06:36.905Z,70.80
2022-09-25T11:09:22.732Z,70.50
2022-09-25T11:11:52.249Z,70.60
2022-09-25T11:14:32.596Z,70.60
2022-09-25T11:17:01.366Z,70.10
2022-09-25T11:19:30.622Z,69.70
2022-09-25T11:22:31.363Z,69.40
2022-09-25T11:25:22.731Z,68.70
2022-09-25T11:28:13.550Z,69.20
2022-09-25T11:30:49.523Z,69.00
2022-09-25T11:33:36.082Z,68.80
2022-09-25T11:36:10.199Z,68.80
2022-09-25T11:39:06.632Z,68.60
2022-09-25T11:41:38.776Z,68.60
2022-09-25T11:44:23.745Z,68.70
2022-09-25T11:47:17.750Z,68.10
2022-09-25T11:49:48.531Z,67.90
2022-09-25T11:52:29.718Z,68.10
2022-09-25T11:55:14.969Z,68.00
2022-09-25T11:57:49.556Z,67.10
2022-09-25T12:00:53.328Z,67.10
2022-09-25T12:03:33.413Z,66.70
2022-09-25T12:06:27.003Z,67.00
2022-09-25T12:09:19.456Z,66.50
2022-09-25T12:12:09.802Z,66.50
2022-09-25T12:15:00.745Z,65.50
2022-09-25T12:17:43.705Z,65.40
2022-09-25T12:20:23.443Z,65.70
2022-09-25T12:22:55.185Z,65.50
2022-09-25T12:25:40.998Z,65.70
2022-09-25T12:28:43.567Z,64.90
2022-09-25T12:31:29.669Z,64.90
2022-09-25T12:34:03.343Z,65.00
2022-09-25T12:37:03.453Z,65.50
2022-09-25T12:39:40.322Z,64.60
2022-09-25T12:42:17.768Z,64.70
2022-09-25T12:45:07.722Z,65.30
2022-09-25T12:47:46.022Z,64.80
2022-09-25T12:50:20.935Z,64.40
2022-09-25T12:52:59.818Z,65.00
2022-09-25T12:55:34.414Z,63.70
2022-09-25T12:58:12.055Z,62.90
2022-09-25T13:00:43.327Z,62.20
2022-09-25T13:03:17.590Z,62.90
2022-09-25T13:05:52.176Z,63.20
2022-09-25T13:08:27.340Z,62.60
2022-09-25T13:11:07.347Z,62.50
2022-09-25T13:13:44.648Z,61.90
2022-09-25T13:16:14.813Z,61.60
2022-09-25T13:18:51.471Z,62.10
2022-09-25T13:21:36.629Z,61.90
2022-09-25T13:24:09.965Z,61.60
2022-09-25T13:26:50.884Z,61.70
2022-09-25T13:29:27.914Z,60.80
2022-09-25T13:32:07.469Z,61.10
2022-09-25T13:34:39.661Z,60.40
2022-09-25T13:37:10.471Z,60.50
2022-09-25T13:40:06.527Z,60.10
2022-09-25T13:42:39.877Z,60.20
2022-09-25T13:45:32.274Z,60.30
2022-09-25T13:48:07.561Z,59.60
2022-09-25T13:50:37.919Z,60.00
2022-09-25T13:53:22.818Z,60.50
2022-09-25T13:55:55.522Z,60.00
2022-09-25T13:58:32.056Z,60.00
2022-09-25T14:01:01.087Z,61.00
2022-09-25T14:03:46.772Z,60.90
2022-09-25T14:06:23.535Z,61.00
2022-09-25T14:08:51.798Z,61.10
2022-09-25T14:11:22.964Z,60.20
2022-09-25T14:13:52.663Z,59.00
2022-09-25T14:16:25.929Z,59.40
2022-09-25T14:18:55.244Z,59.30
2022-09-25T14:21:22.661Z,59.20
2022-09-25T14:23:52.222Z,58.80
2022-09-25T14:26:28.941Z,58.60
2022-09-25T14:28:57.547Z,58.40
2022-09-25T14:31:43.506Z,59.10
2022-09-25T14:34:47.817Z,59.90
2022-09-25T14:37:52.869Z,59.70
2022-09-25T14:40:36.205Z,59.70
2022-09-25T14:43:41.614Z,59.10
2022-09-25T14:46:12.788Z,58.40
2022-09-25T14:49:06.079Z,58.20
2022-09-25T14:51:43.518Z,56.20
2022-09-25T14:54:15.881Z,55.50
2022-09-25T14:56:48.453Z,55.30
2022-09-25T14:59:28.921Z,54.50
2022-09-25T15:01:55.788Z,55.10
2022-09-25T15:04:34.436Z,56.50
2022-09-25T15:07:14.364Z,56.90
2022-09-25T15:09:47.680Z,57.20
2022-09-25T15:12:17.700Z,55.90
2022-09-25T15:15:07.617Z,54.50
2022-09-25T15:17:45.096Z,54.00
2022-09-25T15:20:15.019Z,54.60
2022-09-25T15:22:47.525Z,53.90
2022-09-25T15:25:26.613Z,53.50
2022-09-25T15:27:53.538Z,53.70
2022-09-25T15:30:20.522Z,54.50
2022-09-25T15:32:58.416Z,53.70
2022-09-25T15:35:28.696Z,53.30
2022-09-25T15:38:30.392Z,53.40
2022-09-25T15:40:58.660Z,53.10
2022-09-25T15:43:26.029Z,54.20
2022-09-25T15:45:53.397Z,54.00
2022-09-25T15:48:28.051Z,54.30
2022-09-25T15:50:56.410Z,54.80
2022-09-25T15:53:29.767Z,55.20
2022-09-25T15:56:22.568Z,55.20
2022-09-25T15:58:54.226Z,53.30
2022-09-25T16:01:47.113Z,54.00
2022-09-25T16:04:40.280Z,53.00
2022-09-25T16:07:26.994Z,54.60
2022-09-25T16:10:17.948Z,52.90
2022-09-25T16:12:47.866Z,52.90
2022-09-25T16:15:26.590Z,51.20
2022-09-25T16:18:01.453Z,50.90
2022-09-25T16:20:34.275Z,51.30
2022-09-25T16:23:08.440Z,49.50
2022-09-25T16:25:37.034Z,48.90
2022-09-25T16:28:14.926Z,48.80
2022-09-25T16:31:07.876Z,48.90
2022-09-25T16:33:41.017Z,49.30
2022-09-25T16:36:17.715Z,47.70
2022-09-25T16:39:09.748Z,47.20
2022-09-25T16:41:38.842Z,46.80
2022-09-25T16:44:14.624Z,47.90
2022-09-25T16:46:43.192Z,48.10
2022-09-25T16:49:12.176Z,48.30
2022-09-25T16:51:46.174Z,48.30
2022-09-25T16:54:17.598Z,48.30
2022-09-25T16:56:47.994Z,48.80
2022-09-25T16:59:24.290Z,49.10
2022-09-25T17:01:53.084Z,48.50
2022-09-25T17:04:26.221Z,48.90
2022-09-25T17:06:54.246Z,49.40
2022-09-25T17:09:20.925Z,49.90
2022-09-25T17:11:50.125Z,50.20
2022-09-25T17:14:23.150Z,50.40
2022-09-25T17:16:54.650Z,50.30
2022-09-25T17:19:22.066Z,50.60
2022-09-25T17:21:51.381Z,50.50
2022-09-25T17:24:20.732Z,50.50
2022-09-25T17:26:47.834Z,49.90
2022-09-25T17:29:14.576Z,50.60
2022-09-25T17:31:41.395Z,50.50
2022-09-25T17:34:28.290Z,50.80
2022-09-25T17:36:55.186Z,51.20
2022-09-25T17:39:21.834Z,51.50
2022-09-25T17:41:48.581Z,51.60
2022-09-25T17:44:22.310Z,51.80
2022-09-25T17:46:50.199Z,51.90
2022-09-25T17:49:17.716Z,51.60
2022-09-25T17:51:44.704Z,51.90
2022-09-25T17:54:13.247Z,52.00
2022-09-25T17:56:42.441Z,52.40
2022-09-25T17:59:09.435Z,52.50
2022-09-25T18:01:39.422Z,52.40
2022-09-25T18:04:21.810Z,52.40
2022-09-25T18:06:48.765Z,52.50
2022-09-25T18:09:15.863Z,52.50
2022-09-25T18:11:43.544Z,52.60
2022-09-25T18:14:15.031Z,52.80
2022-09-25T18:16:43.904Z,52.90
2022-09-25T18:19:37.415Z,53.10
2022-09-25T18:22:23.315Z,53.00
2022-09-25T18:24:57.099Z,53.30
2022-09-25T18:27:26.177Z,53.50
2022-09-25T18:29:53.094Z,53.70
2022-09-25T18:32:19.885Z,53.80
2022-09-25T18:34:46.536Z,53.90
2022-09-25T18:37:13.625Z,54.00
2022-09-25T18:39:40.314Z,54.20
2022-09-25T18:42:07.264Z,54.30
2022-09-25T18:44:42.168Z,54.60
2022-09-25T18:47:09.138Z,54.50
2022-09-25T18:49:37.405Z,54.70
2022-09-25T18:52:04.249Z,54.60
2022-09-25T18:54:31.026Z,54.90
2022-09-25T18:56:58.556Z,54.90
2022-09-25T18:59:28.484Z,55.00
2022-09-25T19:01:55.606Z,55.50
2022-09-25T19:04:23.153Z,55.40
2022-09-25T19:06:49.870Z,55.50
2022-09-25T19:09:17.493Z,55.40
2022-09-25T19:11:44.906Z,55.70
2022-09-25T19:14:12.915Z,55.60
2022-09-25T19:16:39.719Z,55.50
2022-09-25T19:19:07.498Z,55.60
2022-09-25T19:21:35.160Z,56.40
2022-09-25T19:24:02.117Z,56.20
2022-09-25T19:26:29.157Z,56.20
2022-09-25T19:28:55.831Z,56.10
2022-09-25T19:31:27.383Z,56.10
2022-09-25T19:33:55.557Z,56.10
2022-09-25T19:36:30.442Z,56.20
2022-09-25T19:38:58.040Z,56.50
2022-09-25T19:41:31.807Z,56.70
2022-09-25T19:44:05.762Z,56.50
2022-09-25T19:46:35.080Z,56.60
2022-09-25T19:49:02.007Z,56.70
2022-09-25T19:51:29.634Z,56.70
2022-09-25T19:53:56.295Z,56.70
2022-09-25T19:56:22.956Z,56.90
2022-09-25T19:58:53.245Z,57.00
2022-09-25T20:01:22.819Z,56.90
2022-09-25T20:03:50.012Z,57.20
2022-09-25T20:06:17.614Z,57.30
2022-09-25T20:08:45.130Z,57.90
2022-09-25T20:11:20.602Z,59.10
2022-09-25T20:13:49.312Z,58.80
2022-09-25T20:16:18.592Z,57.90
2022-09-25T20:18:56.373Z,57.80
2022-09-25T20:21:23.954Z,58.20
2022-09-25T20:23:52.525Z,58.50
2022-09-25T20:26:20.565Z,60.10
2022-09-25T20:28:54.907Z,60.80
2022-09-25T20:31:21.967Z,60.10
2022-09-25T20:33:48.934Z,59.40
2022-09-25T20:36:16.067Z,59.10
2022-09-25T20:38:43.206Z,59.30
2022-09-25T20:41:12.726Z,59.40
2022-09-25T20:43:40.384Z,59.10
2022-09-25T20:46:09.851Z,59.10
2022-09-25T20:48:39.837Z,59.00
2022-09-25T20:51:09.790Z,59.60
2022-09-25T20:53:37.799Z,60.00
2022-09-25T20:56:09.965Z,59.50
2022-09-25T20:58:38.170Z,59.40
2022-09-25T21:01:10.981Z,59.50
2022-09-25T21:03:39.622Z,59.40
2022-09-25T21:06:09.902Z,59.30
2022-09-25T21:08:36.789Z,59.20
2022-09-25T21:11:03.821Z,59.50
2022-09-25T21:13:33.084Z,59.40
2022-09-25T21:16:04.927Z,59.50
2022-09-25T21:18:35.218Z,59.40
2022-09-25T21:21:04.182Z,59.50
2022-09-25T21:23:31.071Z,59.40
2022-09-25T21:26:06.707Z,59.40
2022-09-25T21:28:34.101Z,59.50
2022-09-25T21:31:14.921Z,59.40
2022-09-25T21:33:42.350Z,59.30
2022-09-25T21:36:10.795Z,59.50
2022-09-25T21:38:37.648Z,60.10
2022-09-25T21:41:06.247Z,60.00
2022-09-25T21:43:35.015Z,59.80
2022-09-25T21:46:08.580Z,59.90
2022-09-25T21:48:36.820Z,60.90
2022-09-25T21:51:05.793Z,61.10
2022-09-25T21:53:33.879Z,61.60
2022-09-25T21:56:05.655Z,60.90
2022-09-25T21:58:33.035Z,60.80
2022-09-25T22:01:20.295Z,60.60
2022-09-25T22:03:49.696Z,60.60
2022-09-25T22:06:47.018Z,60.50
2022-09-25T22:09:22.524Z,60.90
2022-09-25T22:11:51.037Z,60.80
2022-09-25T22:14:19.198Z,60.70
2022-09-25T22:16:48.744Z,60.90
2022-09-25T22:19:27.883Z,60.90
2022-09-25T22:21:56.718Z,60.80
2022-09-25T22:24:24.190Z,61.70
2022-09-25T22:26:52.608Z,61.60
2022-09-25T22:29:20.737Z,61.40
2022-09-25T22:31:47.772Z,63.00
2022-09-25T22:34:19.383Z,62.20
2022-09-25T22:36:46.634Z,61.70
2022-09-25T22:39:15.389Z,61.50
2022-09-25T22:41:42.450Z,61.30
2022-09-25T22:44:09.331Z,61.20
2022-09-25T22:46:36.306Z,61.10
2022-09-25T22:49:03.642Z,61.10
2022-09-25T22:51:30.304Z,61.10
2022-09-25T22:53:57.131Z,61.20
2022-09-25T22:56:26.534Z,61.30
2022-09-25T22:58:56.027Z,61.40
2022-09-25T23:01:25.501Z,61.60
2022-09-25T23:04:00.655Z,62.50
2022-09-25T23:06:29.935Z,62.70
2022-09-25T23:08:59.599Z,62.30
2022-09-25T23:11:27.230Z,62.30
2022-09-25T23:14:11.786Z,62.40
2022-09-25T23:16:38.514Z,63.30
2022-09-25T23:19:05.394Z,63.80
2022-09-25T23:21:32.448Z,63.70
2022-09-25T23:24:02.854Z,64.20
2022-09-25T23:26:30.467Z,64.10
2022-09-25T23:28:58.607Z,63.50
2022-09-25T23:31:26.118Z,63.20
2022-09-25T23:33:53.029Z,63.40
2022-09-25T23:36:21.524Z,65.20
2022-09-25T23:38:49.596Z,64.00
2022-09-25T23:41:27.269Z,63.30
2022-09-25T23:43:54.950Z,63.10
2022-09-25T23:46:24.420Z,62.90
2022-09-25T23:48:51.817Z,62.80
2022-09-25T23:51:20.079Z,62.60
2022-09-25T23:53:47.332Z,62.60
2022-09-25T23:56:23.613Z,63.10
2022-09-25T23:58:51.244Z,63.90
